sensor_id;sensor_type;location;lat;lon;timestamp;temperature;humidity
48946;DHT22;34999;50.940;3.998;2022-12-07T00:01:35;4.10;99.90
48946;DHT22;34999;50.940;3.998;2022-12-07T00:04:07;4.10;99.90
48946;DHT22;34999;50.940;3.998;2022-12-07T00:06:37;4.10;99.90
48946;DHT22;34999;50.940;3.998;2022-12-07T00:09:12;4.10;99.90
48946;DHT22;34999;50.940;3.998;2022-12-07T00:11:42;4.20;99.90
48946;DHT22;34999;50.940;3.998;2022-12-07T00:14:12;4.20;99.90
48946;DHT22;34999;50.940;3.998;2022-12-07T00:16:43;4.20;99.90
48946;DHT22;34999;50.940;3.998;2022-12-07T00:19:13;4.30;99.90
48946;DHT22;34999;50.940;3.998;2022-12-07T00:21:42;4.30;99.90
48946;DHT22;34999;50.940;3.998;2022-12-07T00:24:11;4.30;99.90
48946;DHT22;34999;50.940;3.998;2022-12-07T00:26:41;4.20;99.90
48946;DHT22;34999;50.940;3.998;2022-12-07T00:29:15;4.20;99.90
48946;DHT22;34999;50.940;3.998;2022-12-07T00:31:45;4.10;99.90
48946;DHT22;34999;50.940;3.998;2022-12-07T00:34:15;4.10;99.90
48946;DHT22;34999;50.940;3.998;2022-12-07T00:36:44;4.10;99.90
48946;DHT22;34999;50.940;3.998;2022-12-07T00:39:12;4.10;99.90
48946;DHT22;34999;50.940;3.998;2022-12-07T00:41:41;4.00;99.90
48946;DHT22;34999;50.940;3.998;2022-12-07T00:44:10;4.00;99.90
48946;DHT22;34999;50.940;3.998;2022-12-07T00:46:38;4.00;99.90
48946;DHT22;34999;50.940;3.998;2022-12-07T00:49:08;4.00;99.90
48946;DHT22;34999;50.940;3.998;2022-12-07T00:51:37;4.00;99.90
48946;DHT22;34999;50.940;3.998;2022-12-07T00:54:06;4.00;99.90
48946;DHT22;34999;50.940;3.998;2022-12-07T00:56:34;4.00;99.90
48946;DHT22;34999;50.940;3.998;2022-12-07T00:59:04;3.90;99.90
48946;DHT22;34999;50.940;3.998;2022-12-07T01:01:34;3.90;99.90
48946;DHT22;34999;50.940;3.998;2022-12-07T01:04:04;3.80;99.90
48946;DHT22;34999;50.940;3.998;2022-12-07T01:06:34;3.80;99.90
48946;DHT22;34999;50.940;3.998;2022-12-07T01:09:03;3.80;99.90
48946;DHT22;34999;50.940;3.998;2022-12-07T01:11:32;3.80;99.90
48946;DHT22;34999;50.940;3.998;2022-12-07T01:14:00;3.80;99.90
48946;DHT22;34999;50.940;3.998;2022-12-07T01:16:30;3.80;99.90
48946;DHT22;34999;50.940;3.998;2022-12-07T01:19:01;3.80;99.90
48946;DHT22;34999;50.940;3.998;2022-12-07T01:21:34;3.80;99.90
48946;DHT22;34999;50.940;3.998;2022-12-07T01:24:06;3.90;99.90
48946;DHT22;34999;50.940;3.998;2022-12-07T01:26:35;3.90;99.90
48946;DHT22;34999;50.940;3.998;2022-12-07T01:29:03;4.00;99.90
48946;DHT22;34999;50.940;3.998;2022-12-07T01:31:32;4.00;99.90
48946;DHT22;34999;50.940;3.998;2022-12-07T01:34:00;4.10;99.90
48946;DHT22;34999;50.940;3.998;2022-12-07T01:36:30;4.20;99.90
48946;DHT22;34999;50.940;3.998;2022-12-07T01:39:01;4.20;99.90
48946;DHT22;34999;50.940;3.998;2022-12-07T01:41:32;4.20;99.90
48946;DHT22;34999;50.940;3.998;2022-12-07T01:44:11;4.30;99.90
48946;DHT22;34999;50.940;3.998;2022-12-07T01:46:41;4.20;99.90
48946;DHT22;34999;50.940;3.998;2022-12-07T01:49:14;4.20;99.90
48946;DHT22;34999;50.940;3.998;2022-12-07T01:51:45;4.20;99.90
48946;DHT22;34999;50.940;3.998;2022-12-07T01:54:16;4.10;99.90
48946;DHT22;34999;50.940;3.998;2022-12-07T01:56:50;4.10;99.90
48946;DHT22;34999;50.940;3.998;2022-12-07T01:59:22;4.00;99.90
48946;DHT22;34999;50.940;3.998;2022-12-07T02:01:54;3.90;99.90
48946;DHT22;34999;50.940;3.998;2022-12-07T02:04:24;3.90;99.90
48946;DHT22;34999;50.940;3.998;2022-12-07T02:06:52;3.80;99.90
48946;DHT22;34999;50.940;3.998;2022-12-07T02:09:22;3.80;99.90
48946;DHT22;34999;50.940;3.998;2022-12-07T02:11:52;3.80;99.90
48946;DHT22;34999;50.940;3.998;2022-12-07T02:14:20;3.90;99.90
48946;DHT22;34999;50.940;3.998;2022-12-07T02:16:59;4.00;99.90
48946;DHT22;34999;50.940;3.998;2022-12-07T02:20:08;4.00;99.90
48946;DHT22;34999;50.940;3.998;2022-12-07T02:23:07;4.10;99.90
48946;DHT22;34999;50.940;3.998;2022-12-07T02:26:02;4.00;99.90
48946;DHT22;34999;50.940;3.998;2022-12-07T02:28:44;3.90;99.90
48946;DHT22;34999;50.940;3.998;2022-12-07T02:31:17;3.90;99.90
48946;DHT22;34999;50.940;3.998;2022-12-07T02:33:51;3.80;99.90
48946;DHT22;34999;50.940;3.998;2022-12-07T02:36:27;3.80;99.90
48946;DHT22;34999;50.940;3.998;2022-12-07T02:38:59;3.80;99.90
48946;DHT22;34999;50.940;3.998;2022-12-07T02:41:32;3.80;99.90
48946;DHT22;34999;50.940;3.998;2022-12-07T02:44:09;3.80;99.90
48946;DHT22;34999;50.940;3.998;2022-12-07T02:46:42;3.80;99.90
48946;DHT22;34999;50.940;3.998;2022-12-07T02:49:11;3.70;99.90
48946;DHT22;34999;50.940;3.998;2022-12-07T02:51:41;3.70;99.90
48946;DHT22;34999;50.940;3.998;2022-12-07T02:54:12;3.60;99.90
48946;DHT22;34999;50.940;3.998;2022-12-07T02:56:48;3.60;99.90
48946;DHT22;34999;50.940;3.998;2022-12-07T02:59:29;3.60;99.90
48946;DHT22;34999;50.940;3.998;2022-12-07T03:02:10;3.50;99.90
48946;DHT22;34999;50.940;3.998;2022-12-07T03:04:46;3.50;99.90
48946;DHT22;34999;50.940;3.998;2022-12-07T03:07:26;3.40;99.90
48946;DHT22;34999;50.940;3.998;2022-12-07T03:10:02;3.30;99.90
48946;DHT22;34999;50.940;3.998;2022-12-07T03:12:42;3.20;99.90
48946;DHT22;34999;50.940;3.998;2022-12-07T03:15:20;3.10;99.90
48946;DHT22;34999;50.940;3.998;2022-12-07T03:17:51;3.10;99.90
48946;DHT22;34999;50.940;3.998;2022-12-07T03:20:22;3.10;99.90
48946;DHT22;34999;50.940;3.998;2022-12-07T03:22:53;3.10;99.90
48946;DHT22;34999;50.940;3.998;2022-12-07T03:25:22;3.10;99.90
48946;DHT22;34999;50.940;3.998;2022-12-07T03:27:54;3.20;99.90
48946;DHT22;34999;50.940;3.998;2022-12-07T03:30:28;3.20;99.90
48946;DHT22;34999;50.940;3.998;2022-12-07T03:33:01;3.20;99.90
48946;DHT22;34999;50.940;3.998;2022-12-07T03:35:34;3.20;99.90
48946;DHT22;34999;50.940;3.998;2022-12-07T03:38:11;3.20;99.90
48946;DHT22;34999;50.940;3.998;2022-12-07T03:40:47;3.10;99.90
48946;DHT22;34999;50.940;3.998;2022-12-07T03:43:18;3.10;99.90
48946;DHT22;34999;50.940;3.998;2022-12-07T03:45:58;3.00;99.90
48946;DHT22;34999;50.940;3.998;2022-12-07T03:48:34;3.00;99.90
48946;DHT22;34999;50.940;3.998;2022-12-07T03:51:18;3.00;99.90
48946;DHT22;34999;50.940;3.998;2022-12-07T03:53:53;3.00;99.90
48946;DHT22;34999;50.940;3.998;2022-12-07T03:56:24;3.00;99.90
48946;DHT22;34999;50.940;3.998;2022-12-07T03:58:54;3.00;99.90
48946;DHT22;34999;50.940;3.998;2022-12-07T04:01:24;2.90;99.90
48946;DHT22;34999;50.940;3.998;2022-12-07T04:03:53;2.90;99.90
48946;DHT22;34999;50.940;3.998;2022-12-07T04:06:21;2.80;99.90
48946;DHT22;34999;50.940;3.998;2022-12-07T04:08:50;2.80;99.90
48946;DHT22;34999;50.940;3.998;2022-12-07T04:11:19;2.80;99.90
48946;DHT22;34999;50.940;3.998;2022-12-07T04:13:47;2.80;99.90
48946;DHT22;34999;50.940;3.998;2022-12-07T04:16:34;2.80;99.90
48946;DHT22;34999;50.940;3.998;2022-12-07T04:19:10;2.90;99.90
48946;DHT22;34999;50.940;3.998;2022-12-07T04:21:38;3.00;99.90
48946;DHT22;34999;50.940;3.998;2022-12-07T04:24:07;3.00;99.90
48946;DHT22;34999;50.940;3.998;2022-12-07T04:26:35;3.00;99.90
48946;DHT22;34999;50.940;3.998;2022-12-07T04:29:04;2.90;99.90
48946;DHT22;34999;50.940;3.998;2022-12-07T04:31:35;2.90;99.90
48946;DHT22;34999;50.940;3.998;2022-12-07T04:34:05;2.90;99.90
48946;DHT22;34999;50.940;3.998;2022-12-07T04:36:34;2.80;99.90
48946;DHT22;34999;50.940;3.998;2022-12-07T04:39:03;2.80;99.90
48946;DHT22;34999;50.940;3.998;2022-12-07T04:41:31;2.70;99.90
48946;DHT22;34999;50.940;3.998;2022-12-07T04:44:02;2.60;99.90
48946;DHT22;34999;50.940;3.998;2022-12-07T04:46:35;2.50;99.90
48946;DHT22;34999;50.940;3.998;2022-12-07T04:49:04;2.40;99.90
48946;DHT22;34999;50.940;3.998;2022-12-07T04:51:32;2.40;99.90
48946;DHT22;34999;50.940;3.998;2022-12-07T04:54:00;2.30;99.90
48946;DHT22;34999;50.940;3.998;2022-12-07T04:56:29;2.30;99.90
48946;DHT22;34999;50.940;3.998;2022-12-07T04:58:57;2.30;99.90
48946;DHT22;34999;50.940;3.998;2022-12-07T05:01:28;2.30;99.90
48946;DHT22;34999;50.940;3.998;2022-12-07T05:03:59;2.30;99.90
48946;DHT22;34999;50.940;3.998;2022-12-07T05:06:27;2.30;99.90
48946;DHT22;34999;50.940;3.998;2022-12-07T05:08:56;2.30;99.90
48946;DHT22;34999;50.940;3.998;2022-12-07T05:11:24;2.30;99.90
48946;DHT22;34999;50.940;3.998;2022-12-07T05:14:11;2.30;99.90
48946;DHT22;34999;50.940;3.998;2022-12-07T05:16:41;2.30;99.90
48946;DHT22;34999;50.940;3.998;2022-12-07T05:19:11;2.30;99.90
48946;DHT22;34999;50.940;3.998;2022-12-07T05:21:40;2.20;99.90
48946;DHT22;34999;50.940;3.998;2022-12-07T05:24:11;2.30;99.90
48946;DHT22;34999;50.940;3.998;2022-12-07T05:26:40;2.30;99.90
48946;DHT22;34999;50.940;3.998;2022-12-07T05:29:11;2.30;99.90
48946;DHT22;34999;50.940;3.998;2022-12-07T05:31:40;2.40;99.90
48946;DHT22;34999;50.940;3.998;2022-12-07T05:34:11;2.50;99.90
48946;DHT22;34999;50.940;3.998;2022-12-07T05:36:39;2.60;99.90
48946;DHT22;34999;50.940;3.998;2022-12-07T05:39:08;2.70;99.90
48946;DHT22;34999;50.940;3.998;2022-12-07T05:41:36;2.80;99.90
48946;DHT22;34999;50.940;3.998;2022-12-07T05:44:22;2.80;99.90
48946;DHT22;34999;50.940;3.998;2022-12-07T05:46:50;2.90;99.90
48946;DHT22;34999;50.940;3.998;2022-12-07T05:49:20;3.00;99.90
48946;DHT22;34999;50.940;3.998;2022-12-07T05:51:48;3.00;99.90
48946;DHT22;34999;50.940;3.998;2022-12-07T05:54:16;3.10;99.90
48946;DHT22;34999;50.940;3.998;2022-12-07T05:56:45;3.20;99.90
48946;DHT22;34999;50.940;3.998;2022-12-07T05:59:13;3.30;99.90
48946;DHT22;34999;50.940;3.998;2022-12-07T06:01:52;3.30;99.90
48946;DHT22;34999;50.940;3.998;2022-12-07T06:04:24;3.30;99.90
48946;DHT22;34999;50.940;3.998;2022-12-07T06:06:52;3.40;99.90
48946;DHT22;34999;50.940;3.998;2022-12-07T06:09:22;3.40;99.90
48946;DHT22;34999;50.940;3.998;2022-12-07T06:11:50;3.40;99.90
48946;DHT22;34999;50.940;3.998;2022-12-07T06:14:37;3.30;99.90
48946;DHT22;34999;50.940;3.998;2022-12-07T06:17:06;3.30;99.90
48946;DHT22;34999;50.940;3.998;2022-12-07T06:19:41;3.20;99.90
48946;DHT22;34999;50.940;3.998;2022-12-07T06:22:10;3.20;99.90
48946;DHT22;34999;50.940;3.998;2022-12-07T06:24:39;3.20;99.90
48946;DHT22;34999;50.940;3.998;2022-12-07T06:27:08;3.10;99.90
48946;DHT22;34999;50.940;3.998;2022-12-07T06:29:36;3.10;99.90
48946;DHT22;34999;50.940;3.998;2022-12-07T06:32:07;3.00;99.90
48946;DHT22;34999;50.940;3.998;2022-12-07T06:34:36;3.00;99.90
48946;DHT22;34999;50.940;3.998;2022-12-07T06:37:07;2.90;99.90
48946;DHT22;34999;50.940;3.998;2022-12-07T06:39:35;2.90;99.90
48946;DHT22;34999;50.940;3.998;2022-12-07T06:42:06;2.90;99.90
48946;DHT22;34999;50.940;3.998;2022-12-07T06:44:34;3.00;99.90
48946;DHT22;34999;50.940;3.998;2022-12-07T06:47:02;3.10;99.90
48946;DHT22;34999;50.940;3.998;2022-12-07T06:49:51;3.10;99.90
48946;DHT22;34999;50.940;3.998;2022-12-07T06:52:21;3.20;99.90
48946;DHT22;34999;50.940;3.998;2022-12-07T06:54:49;3.20;99.90
48946;DHT22;34999;50.940;3.998;2022-12-07T06:57:17;3.20;99.90
48946;DHT22;34999;50.940;3.998;2022-12-07T06:59:47;3.20;99.90
48946;DHT22;34999;50.940;3.998;2022-12-07T07:02:15;3.20;99.90
48946;DHT22;34999;50.940;3.998;2022-12-07T07:04:43;3.20;99.90
48946;DHT22;34999;50.940;3.998;2022-12-07T07:07:12;3.30;99.90
48946;DHT22;34999;50.940;3.998;2022-12-07T07:09:41;3.30;99.90
48946;DHT22;34999;50.940;3.998;2022-12-07T07:12:10;3.30;99.90
48946;DHT22;34999;50.940;3.998;2022-12-07T07:14:38;3.30;99.90
48946;DHT22;34999;50.940;3.998;2022-12-07T07:17:06;3.30;99.90
48946;DHT22;34999;50.940;3.998;2022-12-07T07:19:35;3.40;99.90
48946;DHT22;34999;50.940;3.998;2022-12-07T07:22:06;3.40;99.90
48946;DHT22;34999;50.940;3.998;2022-12-07T07:24:34;3.40;99.90
48946;DHT22;34999;50.940;3.998;2022-12-07T07:27:04;3.50;99.90
48946;DHT22;34999;50.940;3.998;2022-12-07T07:29:32;3.50;99.90
48946;DHT22;34999;50.940;3.998;2022-12-07T07:32:01;3.50;99.90
48946;DHT22;34999;50.940;3.998;2022-12-07T07:34:33;3.50;99.90
48946;DHT22;34999;50.940;3.998;2022-12-07T07:37:01;3.50;99.90
48946;DHT22;34999;50.940;3.998;2022-12-07T07:39:30;3.50;99.90
48946;DHT22;34999;50.940;3.998;2022-12-07T07:41:58;3.60;99.90
48946;DHT22;34999;50.940;3.998;2022-12-07T07:44:28;3.60;99.90
48946;DHT22;34999;50.940;3.998;2022-12-07T07:47:01;3.60;99.90
48946;DHT22;34999;50.940;3.998;2022-12-07T07:49:30;3.60;99.90
48946;DHT22;34999;50.940;3.998;2022-12-07T07:51:58;3.60;99.90
48946;DHT22;34999;50.940;3.998;2022-12-07T07:54:27;3.50;99.90
48946;DHT22;34999;50.940;3.998;2022-12-07T07:56:55;3.50;99.90
48946;DHT22;34999;50.940;3.998;2022-12-07T07:59:24;3.40;99.90
48946;DHT22;34999;50.940;3.998;2022-12-07T08:01:54;3.30;99.90
48946;DHT22;34999;50.940;3.998;2022-12-07T08:04:22;3.30;99.90
48946;DHT22;34999;50.940;3.998;2022-12-07T08:06:51;3.30;99.90
48946;DHT22;34999;50.940;3.998;2022-12-07T08:09:19;3.30;99.90
48946;DHT22;34999;50.940;3.998;2022-12-07T08:11:48;3.40;99.90
48946;DHT22;34999;50.940;3.998;2022-12-07T08:14:16;3.40;99.90
48946;DHT22;34999;50.940;3.998;2022-12-07T08:16:44;3.50;99.90
48946;DHT22;34999;50.940;3.998;2022-12-07T08:19:14;3.60;99.90
48946;DHT22;34999;50.940;3.998;2022-12-07T08:21:43;3.60;99.90
48946;DHT22;34999;50.940;3.998;2022-12-07T08:24:11;3.70;99.90
48946;DHT22;34999;50.940;3.998;2022-12-07T08:26:40;3.80;99.90
48946;DHT22;34999;50.940;3.998;2022-12-07T08:29:08;3.80;99.90
48946;DHT22;34999;50.940;3.998;2022-12-07T08:31:37;3.70;99.90
48946;DHT22;34999;50.940;3.998;2022-12-07T08:34:06;3.70;99.90
48946;DHT22;34999;50.940;3.998;2022-12-07T08:36:36;3.70;99.90
48946;DHT22;34999;50.940;3.998;2022-12-07T08:39:04;3.70;99.90
48946;DHT22;34999;50.940;3.998;2022-12-07T08:41:53;3.70;99.90
48946;DHT22;34999;50.940;3.998;2022-12-07T08:44:22;3.80;99.90
48946;DHT22;34999;50.940;3.998;2022-12-07T08:46:53;3.90;99.90
48946;DHT22;34999;50.940;3.998;2022-12-07T08:49:26;4.00;99.90
48946;DHT22;34999;50.940;3.998;2022-12-07T08:51:57;4.10;99.90
48946;DHT22;34999;50.940;3.998;2022-12-07T08:54:26;4.10;99.90
48946;DHT22;34999;50.940;3.998;2022-12-07T08:56:56;4.20;99.90
48946;DHT22;34999;50.940;3.998;2022-12-07T08:59:27;4.30;99.90
48946;DHT22;34999;50.940;3.998;2022-12-07T09:01:56;4.40;99.90
48946;DHT22;34999;50.940;3.998;2022-12-07T09:04:24;4.40;99.90
48946;DHT22;34999;50.940;3.998;2022-12-07T09:06:54;4.50;99.90
48946;DHT22;34999;50.940;3.998;2022-12-07T09:09:23;4.60;99.90
48946;DHT22;34999;50.940;3.998;2022-12-07T09:11:52;4.70;99.90
48946;DHT22;34999;50.940;3.998;2022-12-07T09:14:21;4.80;99.90
48946;DHT22;34999;50.940;3.998;2022-12-07T09:16:49;5.00;99.90
48946;DHT22;34999;50.940;3.998;2022-12-07T09:19:18;5.10;99.90
48946;DHT22;34999;50.940;3.998;2022-12-07T09:21:46;5.00;99.90
48946;DHT22;34999;50.940;3.998;2022-12-07T09:24:15;5.00;99.90
48946;DHT22;34999;50.940;3.998;2022-12-07T09:26:44;5.00;99.90
48946;DHT22;34999;50.940;3.998;2022-12-07T09:29:13;5.10;99.90
48946;DHT22;34999;50.940;3.998;2022-12-07T09:31:41;5.10;99.90
48946;DHT22;34999;50.940;3.998;2022-12-07T09:34:09;5.20;99.90
48946;DHT22;34999;50.940;3.998;2022-12-07T09:36:38;5.20;99.90
48946;DHT22;34999;50.940;3.998;2022-12-07T09:39:07;5.20;99.90
48946;DHT22;34999;50.940;3.998;2022-12-07T09:41:38;5.20;99.90
48946;DHT22;34999;50.940;3.998;2022-12-07T09:44:13;5.30;99.90
48946;DHT22;34999;50.940;3.998;2022-12-07T09:46:43;5.20;99.90
48946;DHT22;34999;50.940;3.998;2022-12-07T09:49:16;5.20;99.90
48946;DHT22;34999;50.940;3.998;2022-12-07T09:51:46;5.20;99.90
48946;DHT22;34999;50.940;3.998;2022-12-07T09:54:16;5.30;99.90
48946;DHT22;34999;50.940;3.998;2022-12-07T09:56:47;5.60;99.90
48946;DHT22;34999;50.940;3.998;2022-12-07T09:59:18;6.10;99.90
48946;DHT22;34999;50.940;3.998;2022-12-07T10:01:49;6.50;99.90
48946;DHT22;34999;50.940;3.998;2022-12-07T10:04:20;6.90;99.90
48946;DHT22;34999;50.940;3.998;2022-12-07T10:06:50;7.20;99.90
48946;DHT22;34999;50.940;3.998;2022-12-07T10:09:21;7.10;99.90
48946;DHT22;34999;50.940;3.998;2022-12-07T10:12:05;7.00;99.90
48946;DHT22;34999;50.940;3.998;2022-12-07T10:14:36;6.70;99.90
48946;DHT22;34999;50.940;3.998;2022-12-07T10:17:33;6.50;99.90
48946;DHT22;34999;50.940;3.998;2022-12-07T10:20:22;6.40;99.90
48946;DHT22;34999;50.940;3.998;2022-12-07T10:22:57;6.40;99.90
48946;DHT22;34999;50.940;3.998;2022-12-07T10:25:28;6.30;99.90
48946;DHT22;34999;50.940;3.998;2022-12-07T10:28:12;6.30;99.90
48946;DHT22;34999;50.940;3.998;2022-12-07T10:30:56;6.30;99.90
48946;DHT22;34999;50.940;3.998;2022-12-07T10:33:34;6.30;99.90
48946;DHT22;34999;50.940;3.998;2022-12-07T10:36:17;6.30;99.90
48946;DHT22;34999;50.940;3.998;2022-12-07T10:38:47;6.30;99.90
48946;DHT22;34999;50.940;3.998;2022-12-07T10:41:17;6.40;99.90
48946;DHT22;34999;50.940;3.998;2022-12-07T10:43:47;6.40;99.90
48946;DHT22;34999;50.940;3.998;2022-12-07T10:52:53;6.40;99.90
48946;DHT22;34999;50.940;3.998;2022-12-07T10:55:30;6.30;99.90
48946;DHT22;34999;50.940;3.998;2022-12-07T10:58:15;6.30;99.90
48946;DHT22;34999;50.940;3.998;2022-12-07T11:00:51;6.50;99.90
48946;DHT22;34999;50.940;3.998;2022-12-07T11:03:43;6.80;99.90
48946;DHT22;34999;50.940;3.998;2022-12-07T11:06:25;7.10;99.90
48946;DHT22;34999;50.940;3.998;2022-12-07T11:09:04;7.40;99.90
48946;DHT22;34999;50.940;3.998;2022-12-07T11:11:38;7.50;99.90
48946;DHT22;34999;50.940;3.998;2022-12-07T11:14:16;7.50;99.90
48946;DHT22;34999;50.940;3.998;2022-12-07T11:16:56;7.40;99.90
48946;DHT22;34999;50.940;3.998;2022-12-07T11:19:40;7.30;99.90
48946;DHT22;34999;50.940;3.998;2022-12-07T11:22:16;7.30;99.90
48946;DHT22;34999;50.940;3.998;2022-12-07T11:24:50;7.40;99.90
48946;DHT22;34999;50.940;3.998;2022-12-07T11:27:24;7.50;99.90
48946;DHT22;34999;50.940;3.998;2022-12-07T11:30:10;7.60;99.90
48946;DHT22;34999;50.940;3.998;2022-12-07T11:32:57;7.70;99.90
48946;DHT22;34999;50.940;3.998;2022-12-07T11:35:35;7.60;99.90
48946;DHT22;34999;50.940;3.998;2022-12-07T11:38:12;7.60;99.90
48946;DHT22;34999;50.940;3.998;2022-12-07T11:40:46;7.60;99.90
48946;DHT22;34999;50.940;3.998;2022-12-07T11:43:21;7.50;99.90
48946;DHT22;34999;50.940;3.998;2022-12-07T11:45:56;7.50;99.90
48946;DHT22;34999;50.940;3.998;2022-12-07T11:48:32;7.50;99.90
48946;DHT22;34999;50.940;3.998;2022-12-07T11:51:02;7.40;99.90
48946;DHT22;34999;50.940;3.998;2022-12-07T11:53:37;7.30;99.90
48946;DHT22;34999;50.940;3.998;2022-12-07T11:56:12;7.20;99.90
48946;DHT22;34999;50.940;3.998;2022-12-07T11:58:48;7.10;99.90
48946;DHT22;34999;50.940;3.998;2022-12-07T12:01:35;7.10;99.90
48946;DHT22;34999;50.940;3.998;2022-12-07T12:06:56;7.10;99.90
48946;DHT22;34999;50.940;3.998;2022-12-07T12:09:50;7.10;99.90
48946;DHT22;34999;50.940;3.998;2022-12-07T12:12:33;7.20;99.90
48946;DHT22;34999;50.940;3.998;2022-12-07T12:15:37;7.30;99.90
48946;DHT22;34999;50.940;3.998;2022-12-07T12:18:35;7.40;99.90
48946;DHT22;34999;50.940;3.998;2022-12-07T12:21:09;7.50;99.90
48946;DHT22;34999;50.940;3.998;2022-12-07T12:23:46;7.60;99.90
48946;DHT22;34999;50.940;3.998;2022-12-07T12:26:20;7.70;99.90
48946;DHT22;34999;50.940;3.998;2022-12-07T12:28:52;7.70;99.90
48946;DHT22;34999;50.940;3.998;2022-12-07T12:31:40;7.80;99.90
48946;DHT22;34999;50.940;3.998;2022-12-07T12:34:31;7.70;99.90
48946;DHT22;34999;50.940;3.998;2022-12-07T12:37:00;7.70;99.90
48946;DHT22;34999;50.940;3.998;2022-12-07T12:39:28;7.60;99.90
48946;DHT22;34999;50.940;3.998;2022-12-07T12:42:00;7.60;99.90
48946;DHT22;34999;50.940;3.998;2022-12-07T12:45:17;7.60;99.90
48946;DHT22;34999;50.940;3.998;2022-12-07T12:47:57;7.70;99.90
48946;DHT22;34999;50.940;3.998;2022-12-07T12:50:31;7.70;99.90
48946;DHT22;34999;50.940;3.998;2022-12-07T12:53:20;7.70;99.90
48946;DHT22;34999;50.940;3.998;2022-12-07T12:56:23;7.70;99.90
48946;DHT22;34999;50.940;3.998;2022-12-07T12:59:23;7.70;99.90
48946;DHT22;34999;50.940;3.998;2022-12-07T13:01:54;7.70;99.90
48946;DHT22;34999;50.940;3.998;2022-12-07T13:04:48;7.60;99.90
48946;DHT22;34999;50.940;3.998;2022-12-07T13:07:53;7.60;99.90
48946;DHT22;34999;50.940;3.998;2022-12-07T13:10:33;7.50;99.90
48946;DHT22;34999;50.940;3.998;2022-12-07T13:13:05;7.40;99.90
48946;DHT22;34999;50.940;3.998;2022-12-07T13:15:55;7.40;99.90
48946;DHT22;34999;50.940;3.998;2022-12-07T13:18:43;7.30;99.90
48946;DHT22;34999;50.940;3.998;2022-12-07T13:24:15;7.30;99.90
48946;DHT22;34999;50.940;3.998;2022-12-07T13:26:43;7.40;99.90
48946;DHT22;34999;50.940;3.998;2022-12-07T13:29:14;7.50;99.90
48946;DHT22;34999;50.940;3.998;2022-12-07T13:31:48;7.70;99.90
48946;DHT22;34999;50.940;3.998;2022-12-07T13:34:35;7.90;99.90
48946;DHT22;34999;50.940;3.998;2022-12-07T13:37:10;7.90;99.90
48946;DHT22;34999;50.940;3.998;2022-12-07T13:39:45;7.90;99.90
48946;DHT22;34999;50.940;3.998;2022-12-07T13:42:22;7.90;99.90
48946;DHT22;34999;50.940;3.998;2022-12-07T13:44:53;7.80;99.90
48946;DHT22;34999;50.940;3.998;2022-12-07T13:47:30;7.70;99.90
48946;DHT22;34999;50.940;3.998;2022-12-07T13:49:59;7.70;99.90
48946;DHT22;34999;50.940;3.998;2022-12-07T13:52:29;7.80;99.90
48946;DHT22;34999;50.940;3.998;2022-12-07T13:54:59;7.80;99.90
48946;DHT22;34999;50.940;3.998;2022-12-07T13:57:29;7.70;99.90
48946;DHT22;34999;50.940;3.998;2022-12-07T13:59:58;7.70;99.90
48946;DHT22;34999;50.940;3.998;2022-12-07T14:02:29;7.70;99.90
48946;DHT22;34999;50.940;3.998;2022-12-07T14:05:09;7.70;99.90
48946;DHT22;34999;50.940;3.998;2022-12-07T14:07:49;7.70;99.90
48946;DHT22;34999;50.940;3.998;2022-12-07T14:10:25;7.60;99.90
48946;DHT22;34999;50.940;3.998;2022-12-07T14:12:54;7.60;99.90
48946;DHT22;34999;50.940;3.998;2022-12-07T14:15:25;7.50;99.90
48946;DHT22;34999;50.940;3.998;2022-12-07T14:17:57;7.40;99.90
48946;DHT22;34999;50.940;3.998;2022-12-07T14:20:31;7.30;99.90
48946;DHT22;34999;50.940;3.998;2022-12-07T14:23:00;7.30;99.90
48946;DHT22;34999;50.940;3.998;2022-12-07T14:25:46;7.20;99.90
48946;DHT22;34999;50.940;3.998;2022-12-07T14:28:28;7.10;99.90
48946;DHT22;34999;50.940;3.998;2022-12-07T14:30:56;7.10;99.90
48946;DHT22;34999;50.940;3.998;2022-12-07T14:33:27;7.10;99.90
48946;DHT22;34999;50.940;3.998;2022-12-07T14:35:57;7.10;99.90
48946;DHT22;34999;50.940;3.998;2022-12-07T14:38:25;7.00;99.90
48946;DHT22;34999;50.940;3.998;2022-12-07T14:40:55;7.00;99.90
48946;DHT22;34999;50.940;3.998;2022-12-07T14:43:45;7.00;99.90
48946;DHT22;34999;50.940;3.998;2022-12-07T14:46:33;6.90;99.90
48946;DHT22;34999;50.940;3.998;2022-12-07T14:49:03;6.90;99.90
48946;DHT22;34999;50.940;3.998;2022-12-07T14:51:52;6.90;99.90
48946;DHT22;34999;50.940;3.998;2022-12-07T14:54:41;6.80;99.90
48946;DHT22;34999;50.940;3.998;2022-12-07T14:57:10;6.70;99.90
48946;DHT22;34999;50.940;3.998;2022-12-07T14:59:39;6.70;99.90
48946;DHT22;34999;50.940;3.998;2022-12-07T15:02:12;6.60;99.90
48946;DHT22;34999;50.940;3.998;2022-12-07T15:04:42;6.60;99.90
48946;DHT22;34999;50.940;3.998;2022-12-07T15:07:16;6.50;99.90
48946;DHT22;34999;50.940;3.998;2022-12-07T15:09:46;6.40;99.90
48946;DHT22;34999;50.940;3.998;2022-12-07T15:12:15;6.40;99.90
48946;DHT22;34999;50.940;3.998;2022-12-07T15:14:43;6.30;99.90
48946;DHT22;34999;50.940;3.998;2022-12-07T15:17:12;6.20;99.90
48946;DHT22;34999;50.940;3.998;2022-12-07T15:19:58;6.20;99.90
48946;DHT22;34999;50.940;3.998;2022-12-07T15:22:27;6.10;99.90
48946;DHT22;34999;50.940;3.998;2022-12-07T15:25:04;6.10;99.90
48946;DHT22;34999;50.940;3.998;2022-12-07T15:27:33;6.00;99.90
48946;DHT22;34999;50.940;3.998;2022-12-07T15:30:02;6.00;99.90
48946;DHT22;34999;50.940;3.998;2022-12-07T15:32:30;5.90;99.90
48946;DHT22;34999;50.940;3.998;2022-12-07T15:35:01;5.90;99.90
48946;DHT22;34999;50.940;3.998;2022-12-07T15:37:30;5.80;99.90
48946;DHT22;34999;50.940;3.998;2022-12-07T15:39:59;5.80;99.90
48946;DHT22;34999;50.940;3.998;2022-12-07T15:42:33;5.70;99.90
48946;DHT22;34999;50.940;3.998;2022-12-07T15:45:02;5.70;99.90
48946;DHT22;34999;50.940;3.998;2022-12-07T15:47:34;5.60;99.90
48946;DHT22;34999;50.940;3.998;2022-12-07T15:50:25;5.60;99.90
48946;DHT22;34999;50.940;3.998;2022-12-07T15:52:53;5.50;99.90
48946;DHT22;34999;50.940;3.998;2022-12-07T15:55:21;5.40;99.90
48946;DHT22;34999;50.940;3.998;2022-12-07T15:57:50;5.30;99.90
48946;DHT22;34999;50.940;3.998;2022-12-07T16:00:19;5.20;99.90
48946;DHT22;34999;50.940;3.998;2022-12-07T16:02:48;5.10;99.90
48946;DHT22;34999;50.940;3.998;2022-12-07T16:05:16;5.00;99.90
48946;DHT22;34999;50.940;3.998;2022-12-07T16:07:47;5.00;99.90
48946;DHT22;34999;50.940;3.998;2022-12-07T16:10:15;4.90;99.90
48946;DHT22;34999;50.940;3.998;2022-12-07T16:12:44;4.90;99.90
48946;DHT22;34999;50.940;3.998;2022-12-07T16:15:12;4.80;99.90
48946;DHT22;34999;50.940;3.998;2022-12-07T16:17:40;4.70;99.90
48946;DHT22;34999;50.940;3.998;2022-12-07T16:20:10;4.70;99.90
48946;DHT22;34999;50.940;3.998;2022-12-07T16:22:38;4.60;99.90
48946;DHT22;34999;50.940;3.998;2022-12-07T16:25:08;4.60;99.90
48946;DHT22;34999;50.940;3.998;2022-12-07T16:27:36;4.60;99.90
48946;DHT22;34999;50.940;3.998;2022-12-07T16:30:06;4.60;99.90
48946;DHT22;34999;50.940;3.998;2022-12-07T16:32:34;4.60;99.90
48946;DHT22;34999;50.940;3.998;2022-12-07T16:35:03;4.50;99.90